createdAt,value
2019-05-29T00:00:02.689Z,96.89
2019-05-29T00:02:10.478Z,96.78
2019-05-29T00:04:18.453Z,96.75
2019-05-29T00:06:25.147Z,96.67
2019-05-29T00:08:32.452Z,96.59
2019-05-29T00:10:38.990Z,96.47
2019-05-29T00:12:45.414Z,96.53
2019-05-29T00:14:53.407Z,96.60
2019-05-29T00:16:59.986Z,96.69
2019-05-29T00:19:07.006Z,96.73
2019-05-29T00:21:14.707Z,96.72
2019-05-29T00:23:21.367Z,96.64
2019-05-29T00:25:27.897Z,96.62
2019-05-29T00:27:34.375Z,96.68
2019-05-29T00:29:40.842Z,96.68
2019-05-29T00:31:47.311Z,96.63
2019-05-29T00:33:53.921Z,96.68
2019-05-29T00:36:00.422Z,96.69
2019-05-29T00:38:06.829Z,96.72
2019-05-29T00:40:15.073Z,96.67
2019-05-29T00:42:22.730Z,96.73
2019-05-29T00:44:34.210Z,96.70
2019-05-29T00:46:37.382Z,96.56
2019-05-29T00:48:43.838Z,96.45
2019-05-29T00:50:50.254Z,96.59
2019-05-29T00:52:56.652Z,96.78
2019-05-29T00:55:06.519Z,96.75
2019-05-29T00:57:13.023Z,96.74
2019-05-29T00:59:19.537Z,96.66
2019-05-29T01:01:26.067Z,96.54
2019-05-29T01:03:32.486Z,96.44
2019-05-29T01:05:38.895Z,96.27
2019-05-29T01:07:45.363Z,96.25
2019-05-29T01:09:53.318Z,96.01
2019-05-29T01:11:59.779Z,95.93
2019-05-29T01:14:06.508Z,95.80
2019-05-29T01:16:13.323Z,95.74
2019-05-29T01:18:20.061Z,95.71
2019-05-29T01:20:26.529Z,95.40
2019-05-29T01:22:32.996Z,95.41
2019-05-29T01:24:39.464Z,95.39
2019-05-29T01:26:45.899Z,95.47
2019-05-29T01:28:52.282Z,95.46
2019-05-29T01:30:58.681Z,95.36
2019-05-29T01:33:05.247Z,95.13
2019-05-29T01:35:13.752Z,94.81
2019-05-29T01:37:20.375Z,94.54
2019-05-29T01:39:27.737Z,94.58
2019-05-29T01:41:34.388Z,94.62
2019-05-29T01:43:40.784Z,94.62
2019-05-29T01:45:47.394Z,94.56
2019-05-29T01:47:53.892Z,94.55
2019-05-29T01:50:00.408Z,94.51
2019-05-29T01:52:07.245Z,94.54
2019-05-29T01:54:13.790Z,94.50
2019-05-29T01:56:20.269Z,94.55
2019-05-29T01:58:28.014Z,94.75
2019-05-29T02:00:34.689Z,94.74
2019-05-29T02:02:41.086Z,94.67
2019-05-29T02:04:47.583Z,94.85
2019-05-29T02:06:54.126Z,94.71
2019-05-29T02:09:00.534Z,94.69
2019-05-29T02:11:08.684Z,94.77
2019-05-29T02:13:15.266Z,94.82
2019-05-29T02:15:31.696Z,94.79
2019-05-29T02:17:31.775Z,94.64
2019-05-29T02:19:38.187Z,94.61
2019-05-29T02:21:44.678Z,94.62
2019-05-29T02:23:51.313Z,94.69
2019-05-29T02:25:57.714Z,94.69
2019-05-29T02:28:04.213Z,94.65
2019-05-29T02:30:13.097Z,94.64
2019-05-29T02:32:19.706Z,94.54
2019-05-29T02:34:27.860Z,94.45
2019-05-29T02:36:34.388Z,94.40
2019-05-29T02:38:40.897Z,94.35
2019-05-29T02:40:47.313Z,94.36
2019-05-29T02:42:53.955Z,94.24
2019-05-29T02:45:00.571Z,94.15
2019-05-29T02:47:07.101Z,94.12
2019-05-29T02:49:13.679Z,94.11
2019-05-29T02:51:21.942Z,94.03
2019-05-29T02:53:30.809Z,94.01
2019-05-29T02:55:37.538Z,93.91
2019-05-29T02:57:43.998Z,93.92
2019-05-29T02:59:50.467Z,94.04
2019-05-29T03:01:57.000Z,94.33
2019-05-29T03:04:03.548Z,94.45
2019-05-29T03:06:10.159Z,94.42
2019-05-29T03:08:16.786Z,94.43
2019-05-29T03:10:24.790Z,94.42
2019-05-29T03:12:33.501Z,94.33
2019-05-29T03:14:39.826Z,94.19
2019-05-29T03:16:46.206Z,94.07
2019-05-29T03:18:52.617Z,94.11
2019-05-29T03:20:59.013Z,94.07
2019-05-29T03:23:05.608Z,94.06
2019-05-29T03:25:12.246Z,93.93
2019-05-29T03:27:19.709Z,94.01
2019-05-29T03:29:27.984Z,93.90
2019-05-29T03:31:39.716Z,93.91
2019-05-29T03:33:49.019Z,93.80
2019-05-29T03:35:50.481Z,93.77
2019-05-29T03:37:58.973Z,93.56
2019-05-29T03:40:07.985Z,93.54
2019-05-29T03:42:14.511Z,93.53
2019-05-29T03:44:20.928Z,93.69
2019-05-29T03:46:34.374Z,93.51
2019-05-29T03:48:35.531Z,93.48
2019-05-29T03:50:42.497Z,93.15
2019-05-29T03:52:49.073Z,93.25
2019-05-29T03:54:55.477Z,93.26
2019-05-29T03:57:02.028Z,93.38
2019-05-29T03:59:08.501Z,93.51
2019-05-29T04:01:14.980Z,93.99
2019-05-29T04:03:22.982Z,94.02
2019-05-29T04:05:30.800Z,94.32
2019-05-29T04:07:38.271Z,94.71
2019-05-29T04:09:45.121Z,93.88
2019-05-29T04:11:52.465Z,94.10
2019-05-29T04:13:59.400Z,94.26
2019-05-29T04:16:07.700Z,93.65
2019-05-29T04:18:19.646Z,92.74
2019-05-29T04:20:29.559Z,92.90
2019-05-29T04:22:43.046Z,93.04
2019-05-29T04:24:52.949Z,92.56
2019-05-29T04:27:04.318Z,92.34
2019-05-29T04:29:12.155Z,91.72
2019-05-29T04:31:18.634Z,91.04
2019-05-29T04:33:25.039Z,90.95
2019-05-29T04:35:32.665Z,91.10
2019-05-29T04:37:40.642Z,90.77
2019-05-29T04:39:47.220Z,91.25
2019-05-29T04:41:53.596Z,91.24
2019-05-29T04:44:00.017Z,91.21
2019-05-29T04:46:06.421Z,90.05
2019-05-29T04:48:12.843Z,89.85
2019-05-29T04:50:19.358Z,90.58
2019-05-29T04:52:25.966Z,89.50
2019-05-29T04:54:33.388Z,89.78
2019-05-29T04:56:40.128Z,89.96
2019-05-29T04:58:47.571Z,90.56
2019-05-29T05:00:59.281Z,91.20
2019-05-29T05:03:02.087Z,91.62
2019-05-29T05:05:11.748Z,91.62
2019-05-29T05:07:18.233Z,92.06
2019-05-29T05:09:24.627Z,91.40
2019-05-29T05:11:31.361Z,91.07
2019-05-29T05:13:37.824Z,91.38
2019-05-29T05:15:46.904Z,91.39
2019-05-29T05:17:54.117Z,91.29
2019-05-29T05:20:00.662Z,91.44
2019-05-29T05:22:07.229Z,91.66
2019-05-29T05:24:13.776Z,91.96
2019-05-29T05:26:20.427Z,92.26
2019-05-29T05:28:27.999Z,92.34
2019-05-29T05:30:34.570Z,92.00
2019-05-29T05:32:41.711Z,91.89
2019-05-29T05:34:48.214Z,91.28
2019-05-29T05:36:57.480Z,91.40
2019-05-29T05:39:05.641Z,91.11
2019-05-29T05:41:12.860Z,90.66
2019-05-29T05:43:24.001Z,91.20
2019-05-29T05:45:28.763Z,91.35
2019-05-29T05:47:50.065Z,91.04
2019-05-29T05:49:44.860Z,90.72
2019-05-29T05:51:52.110Z,90.54
2019-05-29T05:53:58.569Z,90.72
2019-05-29T05:56:05.303Z,90.13
2019-05-29T05:58:12.413Z,89.91
2019-05-29T06:00:33.973Z,90.27
2019-05-29T06:02:42.018Z,89.81
2019-05-29T06:04:48.613Z,89.81
2019-05-29T06:06:55.141Z,89.74
2019-05-29T06:09:03.575Z,90.24
2019-05-29T06:11:11.864Z,89.65
2019-05-29T06:13:18.358Z,89.94
2019-05-29T06:15:25.506Z,89.87
2019-05-29T06:17:32.357Z,90.30
2019-05-29T06:19:39.084Z,88.72
2019-05-29T06:21:45.455Z,89.26
2019-05-29T06:23:51.920Z,88.79
2019-05-29T06:26:01.404Z,88.51
2019-05-29T06:28:07.934Z,88.96
2019-05-29T06:30:15.279Z,88.93
2019-05-29T06:32:23.173Z,88.92
2019-05-29T06:34:30.724Z,89.18
2019-05-29T06:36:37.957Z,89.19
2019-05-29T06:38:44.670Z,89.88
2019-05-29T06:40:52.330Z,90.63
2019-05-29T06:42:58.982Z,90.34
2019-05-29T06:45:08.736Z,91.19
2019-05-29T06:47:15.557Z,90.75
2019-05-29T06:49:23.030Z,90.64
2019-05-29T06:51:29.408Z,90.18
2019-05-29T06:53:35.876Z,90.21
2019-05-29T06:55:42.731Z,89.44
2019-05-29T06:57:50.610Z,89.83
2019-05-29T06:59:57.008Z,89.30
2019-05-29T07:02:04.270Z,89.71
2019-05-29T07:04:12.484Z,89.58
2019-05-29T07:06:18.973Z,89.29
2019-05-29T07:08:38.325Z,89.56
2019-05-29T07:10:34.168Z,89.19
2019-05-29T07:12:40.544Z,88.85
2019-05-29T07:14:47.002Z,88.35
2019-05-29T07:16:56.126Z,87.97
2019-05-29T07:19:24.813Z,87.59
2019-05-29T07:21:09.845Z,87.24
2019-05-29T07:23:16.312Z,87.06
2019-05-29T07:25:22.723Z,87.52
2019-05-29T07:27:31.648Z,87.15
2019-05-29T07:29:39.005Z,88.08
2019-05-29T07:31:45.646Z,88.52
2019-05-29T07:33:52.071Z,88.54
2019-05-29T07:35:58.471Z,88.52
2019-05-29T07:38:05.023Z,88.17
2019-05-29T07:40:11.849Z,88.52
2019-05-29T07:42:18.294Z,88.31
2019-05-29T07:44:24.689Z,88.63
2019-05-29T07:46:31.387Z,88.87
2019-05-29T07:48:38.496Z,88.46
2019-05-29T07:50:46.065Z,88.11
2019-05-29T07:52:52.663Z,88.09
2019-05-29T07:54:59.123Z,87.21
2019-05-29T07:57:05.656Z,87.25
2019-05-29T07:59:12.316Z,88.19
2019-05-29T08:01:18.845Z,86.86
2019-05-29T08:03:25.300Z,86.66
2019-05-29T08:05:31.845Z,87.23
2019-05-29T08:07:39.405Z,86.94
2019-05-29T08:09:47.742Z,86.12
2019-05-29T08:11:54.368Z,86.88
2019-05-29T08:14:00.840Z,86.09
2019-05-29T08:16:07.470Z,85.99
2019-05-29T08:18:13.934Z,85.98
2019-05-29T08:20:20.715Z,86.17
2019-05-29T08:22:34.301Z,85.80
2019-05-29T08:24:35.359Z,85.55
2019-05-29T08:26:42.930Z,85.09
2019-05-29T08:28:51.183Z,85.66
2019-05-29T08:30:57.896Z,86.00
2019-05-29T08:33:04.367Z,86.24
2019-05-29T08:35:10.980Z,85.44
2019-05-29T08:37:18.446Z,84.98
2019-05-29T08:39:35.466Z,84.20
2019-05-29T08:41:33.080Z,84.21
2019-05-29T08:43:39.556Z,84.29
2019-05-29T08:45:45.975Z,84.87
2019-05-29T08:47:52.636Z,84.66
2019-05-29T08:50:16.704Z,85.04
2019-05-29T08:52:11.863Z,84.79
2019-05-29T08:54:23.882Z,84.50
2019-05-29T08:56:23.707Z,84.15
2019-05-29T08:58:31.762Z,82.61
2019-05-29T09:00:38.181Z,82.17
2019-05-29T09:02:44.773Z,81.45
2019-05-29T09:04:53.034Z,80.72
2019-05-29T09:06:59.463Z,80.58
2019-05-29T09:09:08.269Z,79.85
2019-05-29T09:11:14.799Z,79.29
2019-05-29T09:13:21.238Z,80.22
2019-05-29T09:15:27.689Z,81.11
2019-05-29T09:17:34.714Z,82.23
2019-05-29T09:19:41.533Z,82.05
2019-05-29T09:21:48.005Z,82.05
2019-05-29T09:23:58.329Z,82.33
2019-05-29T09:26:14.062Z,82.36
2019-05-29T09:28:16.606Z,82.31
2019-05-29T09:30:24.143Z,82.05
2019-05-29T09:32:48.371Z,81.41
2019-05-29T09:34:38.734Z,79.37
2019-05-29T09:36:45.142Z,79.05
2019-05-29T09:38:51.882Z,78.32
2019-05-29T09:40:58.607Z,77.95
2019-05-29T09:43:05.241Z,78.33
2019-05-29T09:45:11.755Z,78.09
2019-05-29T09:47:19.032Z,77.46
2019-05-29T09:49:26.402Z,77.60
2019-05-29T09:51:32.918Z,78.16
2019-05-29T09:53:39.350Z,77.76
2019-05-29T09:55:45.802Z,77.95
2019-05-29T09:57:53.843Z,77.51
2019-05-29T10:00:02.227Z,77.14
2019-05-29T10:02:10.428Z,77.96
2019-05-29T10:04:16.895Z,78.24
2019-05-29T10:06:23.448Z,78.62
2019-05-29T10:08:30.036Z,78.98
2019-05-29T10:10:36.509Z,79.95
2019-05-29T10:12:42.989Z,80.52
2019-05-29T10:14:51.380Z,80.57
2019-05-29T10:16:59.215Z,81.21
2019-05-29T10:19:07.475Z,81.15
2019-05-29T10:21:14.136Z,80.65
2019-05-29T10:23:21.415Z,80.85
2019-05-29T10:25:27.902Z,80.52
2019-05-29T10:27:34.500Z,80.73
2019-05-29T10:29:40.902Z,80.74
2019-05-29T10:31:49.216Z,80.00
2019-05-29T10:33:55.459Z,79.21
2019-05-29T10:36:04.094Z,78.62
2019-05-29T10:38:10.174Z,79.03
2019-05-29T10:40:18.021Z,78.61
2019-05-29T10:42:24.558Z,77.54
2019-05-29T10:44:31.033Z,77.92
2019-05-29T10:46:37.433Z,78.04
2019-05-29T10:48:45.376Z,78.74
2019-05-29T10:50:53.770Z,78.10
2019-05-29T10:53:00.186Z,77.54
2019-05-29T10:55:08.203Z,77.82
2019-05-29T10:57:14.743Z,76.66
2019-05-29T10:59:21.280Z,76.43
2019-05-29T11:01:27.875Z,76.34
2019-05-29T11:03:34.399Z,77.23
2019-05-29T11:05:42.019Z,77.70
2019-05-29T11:07:49.681Z,77.30
2019-05-29T11:09:56.351Z,77.51
2019-05-29T11:12:02.947Z,78.12
2019-05-29T11:14:10.650Z,77.28
2019-05-29T11:16:17.147Z,77.03
2019-05-29T11:18:23.534Z,75.81
2019-05-29T11:20:30.309Z,75.95
2019-05-29T11:22:36.785Z,75.77
2019-05-29T11:24:43.335Z,76.33
2019-05-29T11:26:50.338Z,76.20
2019-05-29T11:28:57.087Z,76.58
2019-05-29T11:31:06.198Z,75.16
2019-05-29T11:33:11.769Z,75.58
2019-05-29T11:35:18.495Z,74.88
2019-05-29T11:37:25.129Z,74.61
2019-05-29T11:39:31.683Z,74.32
2019-05-29T11:41:38.330Z,74.70
2019-05-29T11:43:44.803Z,74.79
2019-05-29T11:45:51.401Z,73.98
2019-05-29T11:47:59.593Z,74.14
2019-05-29T11:50:19.014Z,73.58
2019-05-29T11:52:25.066Z,73.59
2019-05-29T11:54:29.574Z,72.75
2019-05-29T11:56:36.055Z,71.97
2019-05-29T11:58:42.694Z,72.18
2019-05-29T12:00:49.156Z,70.98
2019-05-29T12:02:55.984Z,71.10
2019-05-29T12:05:05.758Z,70.44
2019-05-29T12:07:12.231Z,69.92
2019-05-29T12:09:32.135Z,70.46
2019-05-29T12:11:26.866Z,70.46
2019-05-29T12:13:33.436Z,70.08
2019-05-29T12:15:39.982Z,70.22
2019-05-29T12:17:46.561Z,69.42
2019-05-29T12:19:54.128Z,68.68
2019-05-29T12:22:02.584Z,68.43
2019-05-29T12:24:09.085Z,67.68
2019-05-29T12:26:22.451Z,68.18
2019-05-29T12:28:23.862Z,68.99
2019-05-29T12:30:30.773Z,69.42
2019-05-29T12:32:37.253Z,69.81
2019-05-29T12:34:53.079Z,70.31
2019-05-29T12:36:53.246Z,69.90
2019-05-29T12:39:02.019Z,69.39
2019-05-29T12:41:08.865Z,69.56
2019-05-29T12:43:26.556Z,70.57
2019-05-29T12:45:23.751Z,71.50
2019-05-29T12:47:30.171Z,72.62
2019-05-29T12:49:36.691Z,72.99
2019-05-29T12:51:43.275Z,73.46
2019-05-29T12:53:49.664Z,73.42
2019-05-29T12:55:56.258Z,73.29
2019-05-29T12:58:02.773Z,72.71
2019-05-29T13:00:19.009Z,71.70
2019-05-29T13:02:25.455Z,71.01
2019-05-29T13:04:31.934Z,69.43
2019-05-29T13:06:38.406Z,69.33
2019-05-29T13:08:45.144Z,68.53
2019-05-29T13:10:51.540Z,68.82
2019-05-29T13:13:03.849Z,68.16
2019-05-29T13:15:13.422Z,67.93
2019-05-29T13:17:19.879Z,68.14
2019-05-29T13:19:26.454Z,68.08
2019-05-29T13:21:32.847Z,68.67
2019-05-29T13:23:45.021Z,68.05
2019-05-29T13:25:47.445Z,67.50
2019-05-29T13:27:57.270Z,67.56
2019-05-29T13:30:04.086Z,66.69
2019-05-29T13:32:10.402Z,66.56
2019-05-29T13:34:16.806Z,66.14
2019-05-29T13:36:23.207Z,64.66
2019-05-29T13:38:29.682Z,64.43
2019-05-29T13:40:36.078Z,65.45
2019-05-29T13:42:42.467Z,66.31
2019-05-29T13:44:48.935Z,64.99
2019-05-29T13:46:55.374Z,64.53
2019-05-29T13:49:02.853Z,63.27
2019-05-29T13:51:09.595Z,61.30
2019-05-29T13:53:15.988Z,60.54
2019-05-29T13:55:22.512Z,58.91
2019-05-29T13:57:28.953Z,59.45
2019-05-29T13:59:35.423Z,59.90
2019-05-29T14:01:48.261Z,59.98
2019-05-29T14:03:53.127Z,59.68
2019-05-29T14:06:00.794Z,59.82
2019-05-29T14:08:09.193Z,59.69
2019-05-29T14:10:17.255Z,60.25
2019-05-29T14:12:24.075Z,59.02
2019-05-29T14:14:30.839Z,58.12
2019-05-29T14:16:37.300Z,58.08
2019-05-29T14:18:43.757Z,56.96
2019-05-29T14:20:50.278Z,55.94
2019-05-29T14:22:56.831Z,56.23
2019-05-29T14:25:03.313Z,56.65
2019-05-29T14:27:09.835Z,57.24
2019-05-29T14:29:16.408Z,56.84
2019-05-29T14:31:22.839Z,57.38
2019-05-29T14:33:29.340Z,58.06
2019-05-29T14:35:35.794Z,58.07
2019-05-29T14:37:42.357Z,58.29
2019-05-29T14:39:48.786Z,57.75
2019-05-29T14:41:55.239Z,58.29
2019-05-29T14:44:01.798Z,57.54
2019-05-29T14:46:08.470Z,57.30
2019-05-29T14:48:15.093Z,57.49
2019-05-29T14:50:21.924Z,57.66
2019-05-29T14:52:28.394Z,57.67
2019-05-29T14:54:41.730Z,57.63
2019-05-29T14:56:43.492Z,57.54
2019-05-29T14:58:50.186Z,57.12
2019-05-29T15:00:56.720Z,58.02
2019-05-29T15:03:03.393Z,57.19
2019-05-29T15:05:12.192Z,58.42
2019-05-29T15:07:22.519Z,59.11
2019-05-29T15:09:27.018Z,58.50
2019-05-29T15:11:33.441Z,59.34
2019-05-29T15:13:40.476Z,59.15
2019-05-29T15:15:47.007Z,58.76
2019-05-29T15:17:53.597Z,58.64
2019-05-29T15:20:00.160Z,59.18
2019-05-29T15:22:09.204Z,59.12
2019-05-29T15:24:16.228Z,59.55
2019-05-29T15:26:23.303Z,59.97
2019-05-29T15:28:29.763Z,59.93
2019-05-29T15:30:36.205Z,58.83
2019-05-29T15:32:42.764Z,58.70
2019-05-29T15:34:49.424Z,59.74
2019-05-29T15:36:56.031Z,59.84
2019-05-29T15:39:02.637Z,59.89
2019-05-29T15:41:09.047Z,59.52
2019-05-29T15:43:16.956Z,59.47
2019-05-29T15:45:25.412Z,59.54
2019-05-29T15:47:31.957Z,59.08
2019-05-29T15:49:38.510Z,58.31
2019-05-29T15:51:44.937Z,58.99
2019-05-29T15:53:51.496Z,59.46
2019-05-29T15:55:57.894Z,59.53
2019-05-29T15:58:04.779Z,58.84
2019-05-29T16:00:15.477Z,58.59
2019-05-29T16:02:22.506Z,57.71
2019-05-29T16:04:28.915Z,57.59
2019-05-29T16:06:35.451Z,57.65
2019-05-29T16:08:42.293Z,57.34
2019-05-29T16:10:48.784Z,57.13
2019-05-29T16:12:55.309Z,57.02
2019-05-29T16:15:01.858Z,56.19
2019-05-29T16:17:08.980Z,56.03
2019-05-29T16:19:16.272Z,56.13
2019-05-29T16:21:23.196Z,56.05
2019-05-29T16:23:35.829Z,56.09
2019-05-29T16:25:40.661Z,56.71
2019-05-29T16:27:46.514Z,57.09
2019-05-29T16:29:53.190Z,57.21
2019-05-29T16:31:59.863Z,57.74
2019-05-29T16:34:06.583Z,56.72
2019-05-29T16:36:14.485Z,57.51
2019-05-29T16:38:21.839Z,56.92
2019-05-29T16:40:29.663Z,56.58
2019-05-29T16:42:36.217Z,56.94
2019-05-29T16:44:42.698Z,57.18
2019-05-29T16:46:49.187Z,57.91
2019-05-29T16:48:55.598Z,58.07
2019-05-29T16:51:02.168Z,57.40
2019-05-29T16:53:08.640Z,57.64
2019-05-29T16:55:16.983Z,57.68
2019-05-29T16:57:23.895Z,57.82
2019-05-29T16:59:30.294Z,57.61
2019-05-29T17:01:36.698Z,57.96
2019-05-29T17:03:43.176Z,57.98
2019-05-29T17:05:49.715Z,58.28
2019-05-29T17:07:56.200Z,58.52
2019-05-29T17:10:02.692Z,58.66
2019-05-29T17:12:09.297Z,58.50
2019-05-29T17:14:16.437Z,58.46
2019-05-29T17:16:24.816Z,58.84
2019-05-29T17:18:31.496Z,58.98
2019-05-29T17:20:46.851Z,58.98
2019-05-29T17:22:53.350Z,59.25
2019-05-29T17:24:59.769Z,59.28
2019-05-29T17:27:06.585Z,59.73
2019-05-29T17:29:14.733Z,59.69
2019-05-29T17:31:21.258Z,59.97
2019-05-29T17:33:27.719Z,59.96
2019-05-29T17:35:34.132Z,60.75
2019-05-29T17:37:40.674Z,61.04
2019-05-29T17:39:47.248Z,61.06
2019-05-29T17:41:53.824Z,61.08
2019-05-29T17:44:00.307Z,61.56
2019-05-29T17:46:07.004Z,61.33
2019-05-29T17:48:15.444Z,61.13
2019-05-29T17:50:24.592Z,61.83
2019-05-29T17:52:30.618Z,61.83
2019-05-29T17:54:37.380Z,62.06
2019-05-29T17:56:43.867Z,62.38
2019-05-29T17:58:50.328Z,62.13
2019-05-29T18:00:56.884Z,62.37
2019-05-29T18:03:03.411Z,61.42
2019-05-29T18:05:10.514Z,60.89
2019-05-29T18:07:16.973Z,59.71
2019-05-29T18:09:27.384Z,60.04
2019-05-29T18:11:33.031Z,59.03
2019-05-29T18:13:39.628Z,58.94
2019-05-29T18:15:46.200Z,59.11
2019-05-29T18:17:52.694Z,59.33
2019-05-29T18:19:59.144Z,59.00
2019-05-29T18:22:05.855Z,59.23
2019-05-29T18:24:12.259Z,59.54
2019-05-29T18:26:19.983Z,58.87
2019-05-29T18:28:26.643Z,58.81
2019-05-29T18:30:33.250Z,59.05
2019-05-29T18:32:39.868Z,58.59
2019-05-29T18:34:46.336Z,58.87
2019-05-29T18:36:53.912Z,58.93
2019-05-29T18:39:00.335Z,59.36
2019-05-29T18:41:07.125Z,59.63
2019-05-29T18:43:13.678Z,59.43
2019-05-29T18:45:24.503Z,59.51
2019-05-29T18:47:30.323Z,59.85
2019-05-29T18:49:36.876Z,59.84
2019-05-29T18:51:43.304Z,59.87
2019-05-29T18:53:49.780Z,60.34
2019-05-29T18:55:56.271Z,60.44
2019-05-29T18:58:02.942Z,60.45
2019-05-29T19:00:12.352Z,60.77
2019-05-29T19:02:19.032Z,61.21
2019-05-29T19:04:25.587Z,61.33
2019-05-29T19:06:31.950Z,61.06
2019-05-29T19:08:38.432Z,61.40
2019-05-29T19:10:46.624Z,61.41
2019-05-29T19:12:53.165Z,61.57
2019-05-29T19:14:59.698Z,61.61
2019-05-29T19:17:07.334Z,62.00
2019-05-29T19:19:13.856Z,62.29
2019-05-29T19:21:20.406Z,62.49
2019-05-29T19:23:26.880Z,62.36
2019-05-29T19:25:33.300Z,63.11
2019-05-29T19:27:42.130Z,62.78
2019-05-29T19:29:48.657Z,63.22
2019-05-29T19:31:55.106Z,63.14
2019-05-29T19:34:01.877Z,63.09
2019-05-29T19:36:08.582Z,63.39
2019-05-29T19:38:15.167Z,63.50
2019-05-29T19:40:21.801Z,63.89
2019-05-29T19:42:28.280Z,64.33
2019-05-29T19:44:34.878Z,64.96
2019-05-29T19:46:53.140Z,65.27
2019-05-29T19:48:51.078Z,65.54
2019-05-29T19:50:57.544Z,65.06
2019-05-29T19:53:04.085Z,64.75
2019-05-29T19:55:11.375Z,64.90
2019-05-29T19:57:17.936Z,65.27
2019-05-29T19:59:24.352Z,65.47
2019-05-29T20:01:36.166Z,65.27
2019-05-29T20:03:39.359Z,63.58
2019-05-29T20:05:45.770Z,62.43
2019-05-29T20:07:52.287Z,60.22
2019-05-29T20:09:58.728Z,60.17
2019-05-29T20:12:05.258Z,59.48
2019-05-29T20:14:11.848Z,59.15
2019-05-29T20:16:18.250Z,58.77
2019-05-29T20:18:24.647Z,57.98
2019-05-29T20:20:32.303Z,58.05
2019-05-29T20:22:39.205Z,57.99
2019-05-29T20:24:45.858Z,57.76
2019-05-29T20:26:52.348Z,57.82
2019-05-29T20:28:58.828Z,58.55
2019-05-29T20:31:05.522Z,58.24
2019-05-29T20:33:11.948Z,58.78
2019-05-29T20:35:18.750Z,59.34
2019-05-29T20:37:25.277Z,60.34
2019-05-29T20:39:32.979Z,61.15
2019-05-29T20:41:42.137Z,62.24
2019-05-29T20:43:48.288Z,62.11
2019-05-29T20:45:54.751Z,62.68
2019-05-29T20:48:01.227Z,62.54
2019-05-29T20:50:09.595Z,62.58
2019-05-29T20:52:16.068Z,62.64
2019-05-29T20:54:22.681Z,62.96
2019-05-29T20:56:29.265Z,63.41
2019-05-29T20:58:35.708Z,62.92
2019-05-29T21:00:42.396Z,62.83
2019-05-29T21:02:49.120Z,62.79
2019-05-29T21:04:57.726Z,62.76
2019-05-29T21:07:04.455Z,62.84
2019-05-29T21:09:11.075Z,62.84
2019-05-29T21:11:17.485Z,62.39
2019-05-29T21:13:23.945Z,62.45
2019-05-29T21:15:30.566Z,62.91
2019-05-29T21:17:37.886Z,62.88
2019-05-29T21:19:44.823Z,63.15
2019-05-29T21:21:51.284Z,63.20
2019-05-29T21:23:57.743Z,63.44
2019-05-29T21:26:04.492Z,63.89
2019-05-29T21:28:10.905Z,63.80
2019-05-29T21:30:23.687Z,63.78
2019-05-29T21:32:30.150Z,63.98
2019-05-29T21:34:37.648Z,64.16
2019-05-29T21:36:44.345Z,64.06
2019-05-29T21:38:50.805Z,64.45
2019-05-29T21:40:57.405Z,63.73
2019-05-29T21:43:03.884Z,64.30
2019-05-29T21:45:11.135Z,64.41
2019-05-29T21:47:18.765Z,64.51
2019-05-29T21:49:26.732Z,64.62
2019-05-29T21:51:34.180Z,64.66
2019-05-29T21:53:41.816Z,65.10
2019-05-29T21:55:48.422Z,65.38
2019-05-29T21:57:55.423Z,65.48
2019-05-29T22:00:07.831Z,65.10
2019-05-29T22:02:15.933Z,65.14
2019-05-29T22:04:22.400Z,65.43
2019-05-29T22:06:29.175Z,65.83
2019-05-29T22:08:35.830Z,65.80
2019-05-29T22:10:42.881Z,66.11
2019-05-29T22:12:50.312Z,66.41
2019-05-29T22:14:57.020Z,66.39
2019-05-29T22:17:03.645Z,66.63
2019-05-29T22:19:10.237Z,66.74
2019-05-29T22:21:16.755Z,67.10
2019-05-29T22:23:23.224Z,67.36
2019-05-29T22:25:33.591Z,67.78
2019-05-29T22:27:38.923Z,67.66
2019-05-29T22:29:45.303Z,68.05
2019-05-29T22:31:51.767Z,67.94
2019-05-29T22:33:59.484Z,68.27
2019-05-29T22:36:06.510Z,68.61
2019-05-29T22:38:13.027Z,68.68
2019-05-29T22:40:19.633Z,68.49
2019-05-29T22:42:26.179Z,68.56
2019-05-29T22:44:32.669Z,68.92
2019-05-29T22:46:39.144Z,68.90
2019-05-29T22:48:45.675Z,69.22
2019-05-29T22:50:52.218Z,69.51
2019-05-29T22:52:59.868Z,69.74
2019-05-29T22:55:09.446Z,69.86
2019-05-29T22:57:15.980Z,69.76
2019-05-29T22:59:31.371Z,70.04
2019-05-29T23:01:30.691Z,70.09
2019-05-29T23:03:37.300Z,70.28
2019-05-29T23:05:43.843Z,70.21
2019-05-29T23:07:50.384Z,70.40
2019-05-29T23:09:56.767Z,70.07
2019-05-29T23:12:03.183Z,69.54
2019-05-29T23:14:09.752Z,69.96
2019-05-29T23:16:16.318Z,69.30
2019-05-29T23:18:22.776Z,69.61
2019-05-29T23:20:29.170Z,70.08
2019-05-29T23:22:35.689Z,70.47
2019-05-29T23:24:42.299Z,71.01
2019-05-29T23:26:48.824Z,70.90
2019-05-29T23:28:55.389Z,71.45
2019-05-29T23:31:02.978Z,71.58
2019-05-29T23:33:09.489Z,72.06
2019-05-29T23:35:16.324Z,72.29
2019-05-29T23:37:23.036Z,72.50
2019-05-29T23:39:29.567Z,72.64
2019-05-29T23:41:36.021Z,72.46
2019-05-29T23:43:42.526Z,72.35
2019-05-29T23:45:48.988Z,72.39
2019-05-29T23:47:55.576Z,72.04
2019-05-29T23:50:03.187Z,72.52
2019-05-29T23:52:10.335Z,72.56
2019-05-29T23:54:16.802Z,72.60
2019-05-29T23:56:23.276Z,72.67
2019-05-29T23:58:29.935Z,72.69
